Terminal Aerodrome Forecast
Issued by NWS New Orleans/Baton Rouge, LA

Home | Current Version | Previous Version | Text Only | Print | Product List | Glossary On
Versions: 1 2 3 4 5 6 7 8 9 10 11 12 13 14 15 16 17 18 19 20 21
000
FTUS44 KLIX 172340
TAFBTR
TAF
KBTR 172340Z 1800/1824 VRB03KT P6SM SKC
     FM180200 VRB03KT P6SM BKN025
     FM180900 08004KT 5SM SHRA BKN020
      TEMPO 1812/1816 2SM TSRA OVC010CB
     FM181600 15005KT 4SM SHRA BKN020
      TEMPO 1816/1820 VRB15G30KT 1SM TSRA BR BKN015CB=

USA.gov is the U.S. government's official web portal to all federal, state and local government web resources and services.